createdAt,value
2018-05-14T00:00:39.330Z,93.30
2018-05-14T00:03:07.630Z,93.30
2018-05-14T00:05:35.954Z,93.20
2018-05-14T00:08:04.255Z,93.30
2018-05-14T00:10:32.570Z,93.00
2018-05-14T00:13:00.862Z,93.40
2018-05-14T00:15:29.187Z,93.40
2018-05-14T00:17:57.491Z,93.40
2018-05-14T00:20:25.812Z,93.30
2018-05-14T00:22:54.115Z,93.40
2018-05-14T00:25:22.444Z,93.50
2018-05-14T00:27:49.973Z,93.50
2018-05-14T00:30:18.290Z,93.60
2018-05-14T00:32:46.594Z,93.70
2018-05-14T00:35:15.474Z,93.70
2018-05-14T00:37:43.776Z,93.60
2018-05-14T00:40:12.091Z,93.60
2018-05-14T00:42:40.386Z,93.60
2018-05-14T00:45:08.706Z,93.90
2018-05-14T00:47:37.002Z,93.50
2018-05-14T00:50:05.300Z,93.70
2018-05-14T00:52:33.623Z,93.70
2018-05-14T00:55:14.565Z,93.50
2018-05-14T00:57:42.866Z,93.70
2018-05-14T01:00:11.167Z,93.80
2018-05-14T01:02:39.492Z,93.70
2018-05-14T01:05:07.783Z,93.70
2018-05-14T01:07:36.105Z,93.80
2018-05-14T01:10:04.406Z,93.80
2018-05-14T01:12:32.734Z,93.70
2018-05-14T01:15:01.035Z,93.70
2018-05-14T01:17:29.363Z,93.60
2018-05-14T01:19:57.663Z,93.70
2018-05-14T01:22:25.982Z,93.80
2018-05-14T01:24:59.918Z,93.80
2018-05-14T01:27:28.243Z,93.80
2018-05-14T01:29:56.539Z,93.80
2018-05-14T01:32:24.871Z,93.80
2018-05-14T01:34:53.170Z,93.80
2018-05-14T01:37:21.499Z,93.90
2018-05-14T01:39:49.815Z,94.00
2018-05-14T01:42:18.146Z,94.10
2018-05-14T01:44:46.453Z,94.20
2018-05-14T01:47:15.691Z,94.20
2018-05-14T01:49:44.178Z,94.30
2018-05-14T01:52:12.496Z,94.20
2018-05-14T01:54:40.801Z,94.40
2018-05-14T01:57:09.119Z,94.40
2018-05-14T01:59:37.415Z,94.50
2018-05-14T02:02:05.802Z,94.70
2018-05-14T02:04:34.059Z,94.60
2018-05-14T02:07:02.388Z,94.70
2018-05-14T02:09:30.695Z,94.70
2018-05-14T02:11:59.035Z,94.50
2018-05-14T02:14:27.335Z,94.70
2018-05-14T02:16:55.653Z,94.80
2018-05-14T02:19:23.990Z,95.20
2018-05-14T02:21:52.295Z,94.80
2018-05-14T02:24:20.617Z,94.80
2018-05-14T02:26:48.919Z,94.90
2018-05-14T02:29:17.897Z,94.90
2018-05-14T02:31:46.144Z,94.90
2018-05-14T02:34:14.463Z,95.00
2018-05-14T02:36:42.771Z,94.90
2018-05-14T02:39:11.101Z,95.00
2018-05-14T02:41:39.403Z,95.00
2018-05-14T02:44:07.727Z,95.10
2018-05-14T02:46:36.077Z,95.00
2018-05-14T02:49:04.378Z,95.10
2018-05-14T02:51:32.684Z,94.90
2018-05-14T02:54:01.008Z,95.10
2018-05-14T02:56:29.303Z,95.00
2018-05-14T02:58:57.627Z,95.30
2018-05-14T03:01:26.623Z,95.30
2018-05-14T03:03:54.940Z,95.30
2018-05-14T03:06:23.251Z,95.20
2018-05-14T03:08:51.580Z,95.10
2018-05-14T03:11:20.019Z,95.10
2018-05-14T03:13:48.359Z,95.30
2018-05-14T03:16:16.663Z,95.40
2018-05-14T03:18:44.966Z,95.40
2018-05-14T03:21:13.287Z,95.50
2018-05-14T03:23:41.587Z,95.50
2018-05-14T03:26:09.912Z,95.60
2018-05-14T03:28:38.224Z,95.50
2018-05-14T03:31:06.544Z,95.50
2018-05-14T03:33:34.845Z,95.60
2018-05-14T03:36:02.426Z,95.70
2018-05-14T03:38:30.729Z,95.50
2018-05-14T03:40:59.051Z,95.50
2018-05-14T03:43:27.361Z,95.50
2018-05-14T03:45:55.684Z,95.60
2018-05-14T03:48:23.984Z,95.40
2018-05-14T03:50:52.311Z,95.40
2018-05-14T03:53:20.608Z,95.50
2018-05-14T03:55:48.927Z,95.40
2018-05-14T03:58:28.140Z,95.40
2018-05-14T04:01:08.328Z,96.00
2018-05-14T04:03:48.548Z,95.60
2018-05-14T04:06:27.794Z,95.60
2018-05-14T04:08:56.096Z,95.60
2018-05-14T04:11:24.442Z,95.60
2018-05-14T04:13:52.749Z,95.40
2018-05-14T04:16:21.047Z,95.80
2018-05-14T04:18:49.370Z,95.20
2018-05-14T04:21:16.906Z,95.20
2018-05-14T04:23:45.225Z,95.30
2018-05-14T04:26:13.526Z,95.30
2018-05-14T04:28:41.846Z,95.20
2018-05-14T04:31:10.164Z,95.30
2018-05-14T04:33:38.499Z,95.30
2018-05-14T04:36:06.800Z,95.10
2018-05-14T04:38:35.165Z,95.10
2018-05-14T04:41:03.444Z,95.10
2018-05-14T04:43:31.791Z,95.00
2018-05-14T04:46:00.095Z,95.00
2018-05-14T04:48:28.391Z,95.30
2018-05-14T04:50:56.715Z,95.30
2018-05-14T04:53:25.015Z,95.40
2018-05-14T04:55:53.335Z,95.40
2018-05-14T04:58:21.656Z,95.40
2018-05-14T05:00:50.001Z,95.40
2018-05-14T05:03:18.306Z,95.60
2018-05-14T05:05:46.627Z,95.60
2018-05-14T05:08:14.927Z,95.40
2018-05-14T05:10:43.250Z,95.20
2018-05-14T05:13:11.551Z,95.20
2018-05-14T05:15:39.872Z,95.20
2018-05-14T05:18:08.429Z,95.20
2018-05-14T05:20:36.748Z,95.20
2018-05-14T05:23:05.040Z,95.10
2018-05-14T05:25:33.382Z,95.00
2018-05-14T05:28:01.678Z,95.00
2018-05-14T05:30:30.020Z,95.00
2018-05-14T05:32:58.334Z,95.00
2018-05-14T05:35:26.642Z,95.10
2018-05-14T05:37:55.058Z,95.10
2018-05-14T05:40:22.538Z,95.10
2018-05-14T05:42:50.866Z,95.00
2018-05-14T05:45:19.240Z,95.00
2018-05-14T05:47:48.075Z,95.00
2018-05-14T05:50:16.378Z,94.90
2018-05-14T05:52:44.845Z,94.90
2018-05-14T05:55:13.163Z,94.90
2018-05-14T05:57:41.568Z,94.70
2018-05-14T06:00:09.869Z,94.60
2018-05-14T06:02:38.196Z,94.70
2018-05-14T06:05:06.682Z,94.60
2018-05-14T06:07:35.025Z,94.60
2018-05-14T06:10:03.327Z,94.40
2018-05-14T06:12:31.631Z,94.30
2018-05-14T06:14:59.951Z,94.10
2018-05-14T06:17:28.891Z,93.90
2018-05-14T06:19:57.216Z,93.90
2018-05-14T06:22:25.618Z,93.80
2018-05-14T06:24:53.876Z,93.80
2018-05-14T06:27:22.179Z,93.80
2018-05-14T06:29:50.490Z,94.10
2018-05-14T06:32:18.786Z,94.40
2018-05-14T06:34:47.103Z,94.70
2018-05-14T06:37:16.241Z,94.80
2018-05-14T06:39:44.567Z,95.00
2018-05-14T06:42:12.872Z,95.30
2018-05-14T06:44:41.199Z,95.40
2018-05-14T06:47:09.507Z,95.30
2018-05-14T06:49:37.824Z,95.10
2018-05-14T06:52:06.119Z,95.10
2018-05-14T06:54:34.448Z,95.10
2018-05-14T06:57:02.742Z,95.20
2018-05-14T06:59:30.310Z,95.20
2018-05-14T07:01:58.620Z,95.20
2018-05-14T07:04:26.956Z,95.20
2018-05-14T07:06:55.255Z,94.60
2018-05-14T07:09:23.579Z,94.60
2018-05-14T07:11:51.879Z,94.40
2018-05-14T07:14:21.333Z,94.30
2018-05-14T07:16:49.631Z,94.90
2018-05-14T07:19:17.984Z,94.70
2018-05-14T07:21:46.294Z,94.80
2018-05-14T07:24:14.591Z,95.00
2018-05-14T07:26:42.906Z,95.10
2018-05-14T07:29:11.206Z,95.10
2018-05-14T07:31:39.529Z,95.10
2018-05-14T07:34:07.831Z,94.90
2018-05-14T07:36:35.390Z,94.90
2018-05-14T07:39:03.692Z,94.50
2018-05-14T07:41:32.019Z,94.30
2018-05-14T07:44:03.978Z,93.90
2018-05-14T07:46:32.307Z,94.00
2018-05-14T07:49:00.609Z,94.00
2018-05-14T07:51:28.941Z,93.80
2018-05-14T07:53:57.243Z,93.50
2018-05-14T07:56:25.567Z,93.50
2018-05-14T07:58:53.867Z,93.40
2018-05-14T08:01:22.187Z,93.20
2018-05-14T08:03:50.491Z,93.20
2018-05-14T08:06:19.037Z,93.10
2018-05-14T08:08:46.437Z,93.10
2018-05-14T08:11:14.698Z,92.70
2018-05-14T08:13:42.990Z,92.40
2018-05-14T08:16:11.640Z,92.40
2018-05-14T08:18:39.940Z,92.40
2018-05-14T08:21:08.270Z,92.40
2018-05-14T08:23:36.639Z,92.30
2018-05-14T08:26:04.900Z,92.40
2018-05-14T08:28:33.199Z,92.20
2018-05-14T08:31:01.522Z,92.10
2018-05-14T08:33:29.832Z,92.00
2018-05-14T08:35:58.155Z,92.20
2018-05-14T08:38:26.454Z,91.90
2018-05-14T08:40:54.786Z,91.60
2018-05-14T08:43:23.084Z,91.30
2018-05-14T08:45:51.412Z,91.20
2018-05-14T08:48:19.720Z,91.00
2018-05-14T08:50:48.037Z,91.10
2018-05-14T08:53:16.342Z,90.80
2018-05-14T08:55:44.662Z,90.30
2018-05-14T08:58:12.958Z,90.00
2018-05-14T09:00:41.316Z,90.20
2018-05-14T09:03:09.586Z,90.30
2018-05-14T09:05:37.898Z,90.60
2018-05-14T09:08:06.196Z,90.70
2018-05-14T09:10:36.255Z,90.80
2018-05-14T09:13:04.546Z,90.70
2018-05-14T09:15:32.103Z,90.70
2018-05-14T09:18:00.414Z,90.50
2018-05-14T09:20:28.707Z,90.30
2018-05-14T09:22:57.023Z,89.40
2018-05-14T09:25:24.558Z,89.30
2018-05-14T09:27:52.875Z,86.20
2018-05-14T09:30:21.203Z,85.80
2018-05-14T09:32:49.521Z,85.40
2018-05-14T09:35:17.830Z,84.90
2018-05-14T09:37:46.156Z,85.40
2018-05-14T09:40:14.492Z,85.80
2018-05-14T09:42:42.812Z,86.90
2018-05-14T09:45:11.108Z,87.80
2018-05-14T09:47:39.423Z,88.30
2018-05-14T09:50:07.719Z,87.40
2018-05-14T09:52:36.031Z,86.80
2018-05-14T09:55:04.322Z,86.20
2018-05-14T09:57:32.645Z,86.50
2018-05-14T10:00:00.943Z,86.40
2018-05-14T10:02:29.699Z,85.00
2018-05-14T10:04:57.995Z,85.60
2018-05-14T10:07:26.334Z,86.50
2018-05-14T10:09:54.641Z,86.30
2018-05-14T10:12:22.959Z,85.10
2018-05-14T10:14:51.250Z,85.10
2018-05-14T10:17:19.566Z,84.40
2018-05-14T10:19:47.858Z,82.80
2018-05-14T10:22:16.179Z,81.30
2018-05-14T10:24:44.599Z,79.40
2018-05-14T10:27:12.823Z,78.30
2018-05-14T10:29:41.114Z,77.20
2018-05-14T10:32:09.431Z,78.10
2018-05-14T10:34:37.722Z,77.40
2018-05-14T10:37:06.039Z,76.70
2018-05-14T10:39:34.335Z,77.10
2018-05-14T10:42:02.662Z,77.10
2018-05-14T10:44:30.954Z,77.20
2018-05-14T10:46:59.267Z,77.40
2018-05-14T10:49:27.564Z,77.10
2018-05-14T10:51:55.878Z,78.70
2018-05-14T10:54:24.177Z,77.10
2018-05-14T10:56:52.531Z,77.30
2018-05-14T10:59:20.827Z,78.20
2018-05-14T11:01:49.127Z,77.50
2018-05-14T11:04:17.448Z,77.00
2018-05-14T11:06:45.748Z,76.70
2018-05-14T11:09:14.071Z,76.30
2018-05-14T11:11:42.366Z,76.10
2018-05-14T11:14:10.687Z,76.70
2018-05-14T11:16:38.981Z,76.50
2018-05-14T11:19:07.303Z,76.20
2018-05-14T11:21:35.601Z,75.20
2018-05-14T11:24:03.919Z,72.90
2018-05-14T11:26:32.210Z,71.00
2018-05-14T11:29:00.522Z,70.30
2018-05-14T11:31:29.646Z,70.00
2018-05-14T11:33:57.959Z,69.80
2018-05-14T11:36:26.255Z,69.90
2018-05-14T11:38:54.566Z,69.60
2018-05-14T11:41:22.865Z,69.40
2018-05-14T11:43:51.178Z,70.10
2018-05-14T11:46:19.474Z,71.10
2018-05-14T11:48:47.796Z,71.40
2018-05-14T11:51:16.091Z,70.60
2018-05-14T11:53:44.449Z,69.70
2018-05-14T11:56:12.752Z,68.90
2018-05-14T11:58:41.066Z,68.20
2018-05-14T12:01:09.359Z,69.00
2018-05-14T12:03:37.692Z,67.70
2018-05-14T12:06:06.008Z,67.60
2018-05-14T12:08:34.370Z,66.30
2018-05-14T12:11:03.207Z,66.30
2018-05-14T12:13:31.528Z,66.90
2018-05-14T12:15:59.903Z,66.60
2018-05-14T12:18:28.177Z,66.50
2018-05-14T12:20:56.471Z,66.70
2018-05-14T12:23:24.794Z,66.50
2018-05-14T12:25:53.099Z,66.60
2018-05-14T12:28:21.420Z,65.50
2018-05-14T12:30:49.722Z,66.40
2018-05-14T12:33:18.051Z,66.70
2018-05-14T12:35:46.513Z,68.00
2018-05-14T12:38:14.868Z,68.80
2018-05-14T12:40:43.176Z,68.40
2018-05-14T12:43:11.516Z,68.30
2018-05-14T12:45:40.095Z,68.70
2018-05-14T12:48:08.399Z,69.00
2018-05-14T12:50:36.720Z,68.00
2018-05-14T12:53:05.018Z,69.00
2018-05-14T12:55:33.336Z,68.90
2018-05-14T12:58:01.640Z,69.50
2018-05-14T13:00:29.962Z,68.90
2018-05-14T13:02:58.260Z,70.10
2018-05-14T13:05:26.570Z,69.10
2018-05-14T13:07:54.868Z,68.90
2018-05-14T13:10:23.207Z,68.20
2018-05-14T13:12:51.515Z,67.70
2018-05-14T13:15:19.835Z,66.80
2018-05-14T13:17:48.134Z,66.50
2018-05-14T13:20:16.447Z,66.20
2018-05-14T13:22:44.743Z,66.00
2018-05-14T13:25:13.063Z,66.40
2018-05-14T13:27:41.359Z,66.60
2018-05-14T13:30:09.683Z,67.30
2018-05-14T13:32:37.979Z,67.40
2018-05-14T13:35:06.297Z,67.30
2018-05-14T13:37:34.719Z,66.50
2018-05-14T13:40:02.984Z,65.90
2018-05-14T13:42:31.296Z,66.40
2018-05-14T13:44:59.621Z,67.30
2018-05-14T13:47:27.918Z,67.70
2018-05-14T13:49:56.240Z,68.00
2018-05-14T13:52:23.779Z,67.90
2018-05-14T13:54:52.098Z,68.00
2018-05-14T13:57:20.434Z,67.70
2018-05-14T13:59:48.731Z,66.40
2018-05-14T14:02:17.559Z,66.90
2018-05-14T14:04:45.883Z,66.40
2018-05-14T14:07:14.178Z,66.40
2018-05-14T14:09:42.508Z,65.90
2018-05-14T14:12:10.811Z,66.40
2018-05-14T14:14:39.134Z,66.20
2018-05-14T14:17:07.545Z,65.80
2018-05-14T14:19:35.776Z,66.60
2018-05-14T14:22:04.083Z,67.80
2018-05-14T14:24:32.410Z,65.20
2018-05-14T14:27:00.711Z,64.50
2018-05-14T14:29:29.022Z,63.60
2018-05-14T14:31:57.323Z,63.60
2018-05-14T14:34:25.630Z,63.80
2018-05-14T14:36:53.958Z,64.00
2018-05-14T14:39:22.266Z,63.70
2018-05-14T14:41:50.614Z,63.10
2018-05-14T14:44:18.902Z,62.30
2018-05-14T14:46:47.223Z,62.40
2018-05-14T14:49:15.549Z,62.50
2018-05-14T14:51:43.859Z,62.10
2018-05-14T14:54:12.169Z,61.20
2018-05-14T14:56:39.719Z,61.20
2018-05-14T14:59:08.027Z,61.30
2018-05-14T15:01:36.359Z,61.00
2018-05-14T15:04:04.658Z,60.90
2018-05-14T15:06:32.214Z,61.00
2018-05-14T15:09:00.508Z,60.00
2018-05-14T15:11:29.456Z,60.10
2018-05-14T15:13:57.747Z,59.90
2018-05-14T15:16:26.066Z,59.50
2018-05-14T15:18:54.359Z,59.30
2018-05-14T15:21:22.683Z,59.20
2018-05-14T15:23:50.979Z,58.60
2018-05-14T15:26:19.306Z,58.20
2018-05-14T15:28:47.604Z,58.60
2018-05-14T15:31:15.924Z,58.90
2018-05-14T15:33:44.220Z,57.80
2018-05-14T15:36:12.539Z,58.10
2018-05-14T15:38:40.072Z,58.10
2018-05-14T15:41:09.500Z,58.90
2018-05-14T15:43:37.808Z,59.00
2018-05-14T15:46:06.122Z,58.60
2018-05-14T15:48:34.424Z,58.10
2018-05-14T15:51:02.740Z,57.80
2018-05-14T15:53:31.863Z,58.00
2018-05-14T15:55:59.415Z,58.00
2018-05-14T15:58:26.952Z,58.20
2018-05-14T16:00:55.297Z,58.40
2018-05-14T16:03:23.594Z,58.10
2018-05-14T16:05:51.911Z,57.70
2018-05-14T16:08:20.207Z,57.80
2018-05-14T16:10:48.526Z,57.00
2018-05-14T16:13:17.542Z,56.90
2018-05-14T16:15:45.859Z,57.00
2018-05-14T16:18:14.703Z,57.20
2018-05-14T16:20:43.069Z,56.90
2018-05-14T16:23:11.339Z,56.20
2018-05-14T16:25:39.634Z,55.80
2018-05-14T16:28:07.182Z,55.70
2018-05-14T16:30:35.475Z,55.00
2018-05-14T16:33:03.812Z,54.10
2018-05-14T16:35:32.110Z,53.40
2018-05-14T16:38:01.074Z,53.90
2018-05-14T16:40:29.371Z,54.70
2018-05-14T16:42:57.692Z,56.10
2018-05-14T16:45:25.987Z,58.30
2018-05-14T16:47:54.323Z,60.90
2018-05-14T16:50:22.701Z,64.80
2018-05-14T16:52:50.969Z,68.50
2018-05-14T16:55:19.258Z,72.50
2018-05-14T16:57:47.900Z,76.20
2018-05-14T17:00:16.160Z,78.10
2018-05-14T17:02:45.048Z,78.00
2018-05-14T17:05:13.343Z,77.90
2018-05-14T17:07:40.917Z,77.90
2018-05-14T17:10:09.214Z,79.70
2018-05-14T17:12:37.530Z,81.90
2018-05-14T17:15:05.829Z,82.50
2018-05-14T17:17:34.154Z,82.90
2018-05-14T17:20:01.692Z,82.90
2018-05-14T17:22:30.707Z,85.90
2018-05-14T17:24:59.003Z,86.80
2018-05-14T17:27:27.324Z,87.50
2018-05-14T17:29:56.005Z,88.10
2018-05-14T17:32:24.318Z,89.70
2018-05-14T17:34:53.516Z,90.80
2018-05-14T17:37:21.839Z,90.80
2018-05-14T17:39:50.132Z,91.10
2018-05-14T17:42:18.451Z,91.30
2018-05-14T17:44:46.748Z,91.30
2018-05-14T17:47:15.090Z,91.30
2018-05-14T17:49:43.378Z,91.60
2018-05-14T17:52:11.695Z,91.80
2018-05-14T17:54:40.015Z,92.00
2018-05-14T17:57:08.332Z,92.10
2018-05-14T17:59:36.632Z,92.40
2018-05-14T18:02:04.949Z,92.70
2018-05-14T18:04:33.242Z,92.40
2018-05-14T18:07:01.587Z,92.60
2018-05-14T18:09:29.927Z,92.60
2018-05-14T18:11:58.219Z,92.70
2018-05-14T18:14:27.414Z,92.80
2018-05-14T18:16:55.712Z,93.00
2018-05-14T18:19:24.036Z,93.20
2018-05-14T18:21:52.332Z,93.50
2018-05-14T18:24:20.646Z,93.50
2018-05-14T18:26:48.939Z,93.60
2018-05-14T18:29:22.898Z,93.70
2018-05-14T18:31:56.043Z,93.80
2018-05-14T18:34:30.039Z,93.90
2018-05-14T18:36:58.340Z,94.00
2018-05-14T18:39:27.170Z,94.00
2018-05-14T18:41:56.162Z,94.10
2018-05-14T18:44:30.035Z,94.30
2018-05-14T18:46:58.915Z,94.50
2018-05-14T18:49:27.665Z,94.50
2018-05-14T18:51:56.058Z,94.60
2018-05-14T18:54:28.954Z,94.80
2018-05-14T18:56:57.251Z,95.00
2018-05-14T18:59:25.595Z,95.40
2018-05-14T19:01:53.891Z,95.20
2018-05-14T19:04:22.207Z,95.30
2018-05-14T19:06:51.059Z,95.20
2018-05-14T19:09:19.379Z,95.30
2018-05-14T19:11:51.587Z,95.30
2018-05-14T19:14:19.910Z,95.50
2018-05-14T19:16:53.998Z,95.70
2018-05-14T19:19:22.314Z,95.70
2018-05-14T19:21:50.615Z,95.80
2018-05-14T19:24:19.843Z,96.00
2018-05-14T19:26:48.134Z,96.00
2018-05-14T19:29:22.170Z,96.20
2018-05-14T19:31:50.404Z,96.20
2018-05-14T19:34:24.347Z,96.20
2018-05-14T19:36:52.675Z,96.30
2018-05-14T19:39:26.630Z,96.50
2018-05-14T19:41:54.922Z,96.60
2018-05-14T19:44:23.235Z,96.50
2018-05-14T19:46:51.526Z,96.50
2018-05-14T19:49:19.081Z,96.50
2018-05-14T19:51:47.392Z,96.70
2018-05-14T19:54:16.575Z,96.80
2018-05-14T19:56:44.886Z,96.90
2018-05-14T19:59:13.206Z,97.10
2018-05-14T20:01:41.512Z,97.10
2018-05-14T20:04:09.831Z,97.10
2018-05-14T20:06:37.363Z,97.10
2018-05-14T20:09:05.696Z,97.20
2018-05-14T20:11:33.222Z,97.10
2018-05-14T20:14:01.517Z,97.40
2018-05-14T20:16:29.835Z,97.50
2018-05-14T20:18:58.137Z,97.40
2018-05-14T20:21:26.465Z,97.40
2018-05-14T20:23:54.759Z,97.50
2018-05-14T20:26:23.082Z,97.70
2018-05-14T20:28:51.379Z,97.70
2018-05-14T20:31:19.765Z,97.60
2018-05-14T20:33:48.011Z,97.80
2018-05-14T20:36:17.188Z,97.80
2018-05-14T20:38:45.487Z,97.90
2018-05-14T20:41:13.805Z,98.00
2018-05-14T20:43:42.099Z,97.90
2018-05-14T20:46:12.103Z,97.80
2018-05-14T20:48:40.395Z,97.70
2018-05-14T20:51:08.717Z,97.80
2018-05-14T20:53:37.021Z,97.80
2018-05-14T20:56:05.344Z,97.90
2018-05-14T20:58:34.571Z,97.90
2018-05-14T21:01:02.886Z,97.90
2018-05-14T21:03:31.186Z,97.80
2018-05-14T21:05:59.507Z,97.80
2018-05-14T21:08:27.807Z,97.80
2018-05-14T21:10:56.239Z,97.80
2018-05-14T21:13:25.027Z,97.80
2018-05-14T21:15:53.359Z,97.80
2018-05-14T21:18:21.671Z,97.90
2018-05-14T21:20:49.991Z,97.90
2018-05-14T21:23:18.295Z,98.00
2018-05-14T21:25:46.617Z,97.90
2018-05-14T21:28:14.928Z,97.90
2018-05-14T21:30:43.246Z,98.00
2018-05-14T21:33:11.550Z,98.00
2018-05-14T21:35:39.866Z,97.90
2018-05-14T21:38:08.167Z,98.00
2018-05-14T21:40:36.487Z,98.00
2018-05-14T21:43:05.297Z,98.00
2018-05-14T21:45:34.485Z,97.90
2018-05-14T21:48:02.794Z,97.80
2018-05-14T21:50:31.119Z,97.90
2018-05-14T21:53:00.399Z,98.00
2018-05-14T21:55:29.555Z,98.10
2018-05-14T21:57:57.848Z,98.10
2018-05-14T22:00:26.724Z,98.20
2018-05-14T22:02:55.071Z,98.30
2018-05-14T22:05:23.371Z,98.30
2018-05-14T22:07:51.720Z,98.40
2018-05-14T22:10:20.024Z,98.30
2018-05-14T22:12:48.347Z,98.30
2018-05-14T22:15:16.693Z,98.30
2018-05-14T22:17:45.033Z,98.30
2018-05-14T22:20:13.327Z,98.30
2018-05-14T22:22:41.646Z,98.40
2018-05-14T22:25:09.946Z,98.40
2018-05-14T22:27:38.264Z,98.30
2018-05-14T22:30:06.598Z,98.40
2018-05-14T22:32:34.915Z,98.40
2018-05-14T22:35:03.235Z,98.30
2018-05-14T22:37:31.645Z,98.20
2018-05-14T22:39:59.879Z,98.40
2018-05-14T22:42:28.199Z,98.30
2018-05-14T22:44:56.499Z,98.30
2018-05-14T22:47:24.815Z,98.30
2018-05-14T22:49:53.106Z,98.30
2018-05-14T22:52:21.423Z,98.30
2018-05-14T22:54:50.170Z,98.30
2018-05-14T22:57:18.493Z,98.30
2018-05-14T22:59:47.675Z,98.30
2018-05-14T23:02:15.994Z,98.40
2018-05-14T23:04:44.338Z,98.40
2018-05-14T23:07:12.650Z,98.30
2018-05-14T23:09:40.956Z,98.40
2018-05-14T23:12:09.284Z,98.40
2018-05-14T23:14:37.592Z,98.30
2018-05-14T23:17:05.918Z,98.20
2018-05-14T23:19:34.227Z,98.50
2018-05-14T23:22:02.554Z,98.10
2018-05-14T23:24:30.851Z,98.00
2018-05-14T23:26:59.170Z,97.90
2018-05-14T23:29:27.475Z,97.90
2018-05-14T23:31:56.319Z,97.90
2018-05-14T23:34:24.646Z,97.90
2018-05-14T23:36:53.006Z,97.80
2018-05-14T23:39:20.537Z,97.90
2018-05-14T23:41:48.858Z,97.80
2018-05-14T23:44:17.158Z,97.70
2018-05-14T23:46:46.176Z,97.50
2018-05-14T23:49:15.367Z,97.50
2018-05-14T23:51:43.692Z,97.50
2018-05-14T23:54:12.543Z,97.50
2018-05-14T23:56:40.850Z,97.60
2018-05-14T23:59:09.166Z,97.50
